Time;durP1;ratioP1;P1;durP2;ratioP2;P2;SDS_P1;SDS_P2;PMS_P1;PMS_P2;Temp;Humidity;BMP_temperature;BMP_pressure;BME280_temperature;BME280_humidity;BME280_pressure;Samples;Min_cycle;Max_cycle;Signal;HPM_P1;HPM_P2
2021/12/03 00:00:46;;;;;;;5.50;2.10;;;;;;;1.05;66.11;97415.60;214983;1322;23990;-77
2021/12/03 00:06:01;;;;;;;5.30;1.60;;;;;;;0.99;66.14;97422.59;214916;1317;22596;-77
2021/12/03 00:11:17;;;;;;;3.50;1.80;;;;;;;0.97;65.90;97429.08;215044;1316;22582;-77
2021/12/03 00:16:19;;;;;;;5.10;1.90;;;;;;;0.96;66.00;97438.15;215386;1316;24203;-77
2021/12/03 00:21:37;;;;;;;5.10;1.70;;;;;;;0.91;65.86;97441.45;215100;1319;24247;-77
2021/12/03 00:26:51;;;;;;;3.80;1.60;;;;;;;0.84;66.03;97445.42;214684;1320;24244;-77
2021/12/03 00:31:53;;;;;;;4.30;1.90;;;;;;;0.79;65.87;97450.04;215331;1319;22647;-77
2021/12/03 00:36:55;;;;;;;4.40;1.80;;;;;;;0.76;66.17;97457.78;215053;1323;22647;-77
2021/12/03 00:42:00;;;;;;;4.50;1.90;;;;;;;0.71;66.17;97467.35;215024;1321;22756;-77
2021/12/03 00:47:02;;;;;;;4.20;1.50;;;;;;;0.67;65.89;97488.95;215049;1315;25390;-77
2021/12/03 00:52:06;;;;;;;3.90;1.90;;;;;;;0.59;65.77;97494.39;215363;1319;24297;-78
2021/12/03 00:57:09;;;;;;;4.50;1.60;;;;;;;0.56;65.86;97509.96;215393;1319;24251;-77
2021/12/03 01:02:11;;;;;;;5.40;1.70;;;;;;;0.51;66.08;97521.90;215371;1320;22633;-77
2021/12/03 01:07:14;;;;;;;3.70;1.60;;;;;;;0.46;66.33;97526.45;215099;1322;22512;-77
2021/12/03 01:12:17;;;;;;;4.20;1.50;;;;;;;0.42;66.23;97531.48;215289;1316;25246;-77
2021/12/03 01:17:19;;;;;;;4.30;1.40;;;;;;;0.34;66.16;97528.99;214924;1323;22663;-77
2021/12/03 01:22:21;;;;;;;3.90;1.40;;;;;;;0.23;66.18;97536.29;215125;1319;25433;-77
2021/12/03 01:27:23;;;;;;;3.70;1.70;;;;;;;0.12;66.69;97536.40;215241;1321;22543;-77
2021/12/03 01:32:26;;;;;;;3.40;1.50;;;;;;;0.05;66.92;97535.61;215175;1321;23286;-78
2021/12/03 01:37:29;;;;;;;3.10;1.10;;;;;;;-0.02;66.90;97543.66;215083;1322;22614;-78
2021/12/03 01:42:39;;;;;;;3.10;1.00;;;;;;;-0.12;67.12;97547.46;215271;1322;22580;-78
2021/12/03 01:47:43;;;;;;;2.70;1.30;;;;;;;-0.20;67.22;97550.91;215343;1319;22506;-78
2021/12/03 01:52:45;;;;;;;3.20;1.20;;;;;;;-0.24;67.48;97553.52;215100;1321;22554;-78
2021/12/03 01:57:48;;;;;;;3.70;1.10;;;;;;;-0.30;67.86;97560.60;215193;1317;22566;-78
2021/12/03 02:03:04;;;;;;;2.70;1.00;;;;;;;-0.37;67.81;97560.77;215217;1322;22641;-77
2021/12/03 02:08:24;;;;;;;5.40;1.20;;;;;;;-0.43;68.29;97576.57;215137;1321;24304;-77
2021/12/03 02:13:27;;;;;;;4.90;1.30;;;;;;;-0.47;68.38;97589.20;215038;1321;22532;-77
2021/12/03 02:18:29;;;;;;;2.20;1.20;;;;;;;-0.54;68.92;97604.92;215103;1321;24208;-77
2021/12/03 02:23:42;;;;;;;2.50;1.30;;;;;;;-0.59;69.00;97617.36;215342;1323;22736;-77
2021/12/03 02:28:55;;;;;;;2.70;1.20;;;;;;;-0.61;69.29;97622.66;215084;1320;23950;-77
2021/12/03 02:33:57;;;;;;;2.90;1.30;;;;;;;-0.63;69.36;97625.69;215332;1322;22531;-77
2021/12/03 02:38:59;;;;;;;4.60;1.20;;;;;;;-0.65;69.55;97643.16;215341;1322;24336;-77
2021/12/03 02:44:03;;;;;;;3.10;1.10;;;;;;;-0.71;69.42;97652.05;215467;1322;22923;-77
2021/12/03 02:49:06;;;;;;;3.00;1.20;;;;;;;-0.75;69.72;97653.55;215457;1322;22674;-77
2021/12/03 02:54:09;;;;;;;5.20;1.30;;;;;;;-0.78;69.88;97661.41;215370;1321;22632;-77
2021/12/03 02:59:11;;;;;;;3.20;1.10;;;;;;;-0.84;69.85;97671.57;215027;1322;25401;-77
2021/12/03 03:04:14;;;;;;;3.80;1.10;;;;;;;-0.87;70.12;97670.27;215290;1317;22585;-77
2021/12/03 03:09:16;;;;;;;2.70;1.10;;;;;;;-0.88;70.13;97675.73;215419;1321;22647;-77
2021/12/03 03:14:27;;;;;;;4.00;1.20;;;;;;;-0.91;70.25;97682.57;215350;1321;22687;-77
2021/12/03 03:19:42;;;;;;;4.70;1.50;;;;;;;-0.89;70.39;97694.80;215281;1323;22836;-76
2021/12/03 03:24:44;;;;;;;4.40;1.40;;;;;;;-0.83;70.60;97702.95;215172;1322;22664;-77
2021/12/03 03:29:48;;;;;;;3.70;1.30;;;;;;;-0.75;70.74;97709.73;215281;1321;24333;-77
2021/12/03 03:34:51;;;;;;;7.40;1.90;;;;;;;-0.67;70.65;97707.59;215019;1322;22617;-77
2021/12/03 03:39:53;;;;;;;7.00;2.00;;;;;;;-0.58;70.94;97716.50;215282;1322;22683;-77
2021/12/03 03:44:55;;;;;;;7.40;2.20;;;;;;;-0.51;71.01;97719.34;214986;1321;25628;-77
2021/12/03 03:49:57;;;;;;;2.90;1.40;;;;;;;-0.47;70.91;97730.02;215129;1322;24269;-77
2021/12/03 03:55:00;;;;;;;6.10;1.60;;;;;;;-0.43;71.00;97735.06;215026;1325;24237;-77
2021/12/03 04:00:15;;;;;;;4.40;1.90;;;;;;;-0.40;70.66;97746.38;214969;1323;25508;-77
2021/12/03 04:05:18;;;;;;;3.70;1.50;;;;;;;-0.36;70.95;97749.53;215085;1321;23107;-77
2021/12/03 04:10:20;;;;;;;3.40;1.70;;;;;;;-0.27;71.01;97752.71;215364;1323;22617;-77
2021/12/03 04:15:23;;;;;;;3.50;1.70;;;;;;;-0.23;70.88;97760.24;215448;1321;25236;-77
2021/12/03 04:20:32;;;;;;;3.60;1.70;;;;;;;-0.23;70.61;97767.83;215468;1320;22670;-77
2021/12/03 04:25:50;;;;;;;4.80;1.50;;;;;;;-0.23;70.57;97779.30;215386;1320;24391;-77
2021/12/03 04:30:53;;;;;;;3.80;1.30;;;;;;;-0.25;70.54;97777.31;215527;1320;22683;-77
2021/12/03 04:35:56;;;;;;;3.20;1.40;;;;;;;-0.20;70.63;97780.34;215498;1322;22687;-79
2021/12/03 04:41:01;;;;;;;3.80;2.00;;;;;;;-0.21;70.78;97793.92;215401;1321;25216;-78
2021/12/03 04:46:05;;;;;;;4.00;1.70;;;;;;;-0.24;70.71;97796.09;215550;1322;23325;-78
2021/12/03 04:51:08;;;;;;;4.50;1.70;;;;;;;-0.24;70.69;97799.73;215347;1321;22507;-77
2021/12/03 04:56:13;;;;;;;3.60;1.70;;;;;;;-0.21;71.01;97809.96;215174;1322;22661;-78
2021/12/03 05:01:20;;;;;;;3.80;1.90;;;;;;;-0.20;71.00;97816.67;215512;1321;23304;-77
2021/12/03 05:06:31;;;;;;;4.30;1.80;;;;;;;-0.24;70.96;97821.46;215112;1322;22580;-77
2021/12/03 05:11:33;;;;;;;4.00;1.80;;;;;;;-0.26;71.15;97826.16;208007;1322;10359539;-77
2021/12/03 05:16:35;;;;;;;5.00;2.00;;;;;;;-0.26;71.31;97844.16;215403;1320;22674;-77
2021/12/03 05:21:39;;;;;;;4.70;1.50;;;;;;;-0.22;71.35;97853.90;215502;1321;25444;-77
2021/12/03 05:26:44;;;;;;;4.30;2.00;;;;;;;-0.23;71.38;97856.99;215107;1319;22636;-77
2021/12/03 05:31:46;;;;;;;8.20;2.40;;;;;;;-0.23;71.44;97865.33;215341;1317;22728;-78
2021/12/03 05:37:07;;;;;;;7.70;2.10;;;;;;;-0.23;71.56;97871.21;215325;1320;24149;-78
2021/12/03 05:42:22;;;;;;;3.10;1.70;;;;;;;-0.22;71.77;97875.92;215390;1322;22607;-78
2021/12/03 05:47:25;;;;;;;8.10;2.60;;;;;;;-0.26;71.78;97891.70;215359;1322;22633;-77
2021/12/03 05:52:27;;;;;;;4.00;2.00;;;;;;;-0.34;71.75;97900.63;215083;1322;22566;-77
2021/12/03 05:57:30;;;;;;;3.30;1.80;;;;;;;-0.42;71.97;97905.14;215242;1322;25277;-77
2021/12/03 06:02:43;;;;;;;3.10;2.30;;;;;;;-0.49;71.94;97908.80;215547;1322;23493;-77
2021/12/03 06:07:57;;;;;;;4.90;1.90;;;;;;;-0.57;72.34;97918.84;215354;1322;24557;-78
2021/12/03 06:13:00;;;;;;;3.90;2.30;;;;;;;-0.56;72.49;97928.41;215202;1323;24361;-77
2021/12/03 06:18:03;;;;;;;3.40;2.20;;;;;;;-0.58;72.66;97933.34;215026;1322;22634;-77
2021/12/03 06:23:05;;;;;;;4.10;1.60;;;;;;;-0.59;72.62;97933.27;215091;1322;22730;-77
2021/12/03 06:28:12;;;;;;;4.40;1.70;;;;;;;-0.58;72.88;97947.60;215282;1320;23709;-77
2021/12/03 06:33:30;;;;;;;3.50;1.70;;;;;;;-0.58;72.79;97957.64;215303;1317;22715;-77
2021/12/03 06:38:33;;;;;;;8.60;2.00;;;;;;;-0.58;73.19;97968.59;215374;1322;22648;-77
2021/12/03 06:43:44;;;;;;;4.30;1.90;;;;;;;-0.55;73.02;97973.27;215464;1317;23010;-77
2021/12/03 06:49:06;;;;;;;3.10;1.90;;;;;;;-0.46;73.29;97978.06;216335;1316;23620;-78
2021/12/03 06:54:09;;;;;;;6.70;2.80;;;;;;;-0.40;73.26;97977.52;215765;1316;23580;-79
2021/12/03 06:59:24;;;;;;;4.30;2.00;;;;;;;-0.34;73.22;97983.27;216573;1316;22603;-78
2021/12/03 07:04:27;;;;;;;5.30;2.70;;;;;;;-0.26;73.30;97992.04;216519;1316;24292;-78
2021/12/03 07:09:32;;;;;;;5.20;2.70;;;;;;;-0.18;73.12;98004.50;217029;1315;22714;-79
2021/12/03 07:14:36;;;;;;;6.40;2.70;;;;;;;-0.11;72.99;98007.34;216915;1315;23140;-79
2021/12/03 07:19:38;;;;;;;5.90;2.40;;;;;;;-0.01;73.22;98017.11;216354;1316;24222;-78
2021/12/03 07:24:53;;;;;;;4.10;2.00;;;;;;;0.03;72.92;98028.66;216515;1316;23113;-78
2021/12/03 07:30:17;;;;;;;5.90;2.70;;;;;;;0.04;72.80;98029.65;216410;1316;22604;-78
2021/12/03 07:35:23;;;;;;;6.70;2.40;;;;;;;0.13;72.73;98034.88;216152;1316;22767;-77
2021/12/03 07:40:25;;;;;;;3.90;2.90;;;;;;;0.28;72.96;98044.50;216014;1316;22650;-77
2021/12/03 07:45:27;;;;;;;6.90;3.40;;;;;;;0.36;72.76;98059.27;216320;1315;24208;-80
2021/12/03 07:50:33;;;;;;;4.70;2.40;;;;;;;0.38;72.70;98061.77;216678;1316;25463;-80
2021/12/03 07:55:36;;;;;;;4.10;2.20;;;;;;;0.37;72.07;98059.92;216543;1316;25217;-79
2021/12/03 08:00:38;;;;;;;5.00;2.40;;;;;;;0.40;72.12;98069.91;216777;1319;24241;-79
2021/12/03 08:05:51;;;;;;;6.60;2.80;;;;;;;0.46;72.22;98086.89;216747;1316;23973;-80
2021/12/03 08:11:06;;;;;;;11.30;3.30;;;;;;;0.53;71.99;98104.77;216747;1316;22579;-80
2021/12/03 08:16:22;;;;;;;5.70;3.00;;;;;;;0.54;71.83;98121.90;216767;1316;22648;-80
2021/12/03 08:21:24;;;;;;;5.80;2.60;;;;;;;0.53;71.54;98129.85;216687;1316;22598;-79
2021/12/03 08:26:27;;;;;;;7.20;2.40;;;;;;;0.51;71.00;98134.61;216558;1316;23461;-78
2021/12/03 08:37:48;;;;;;;;;;;;;;;;;;;;;
2021/12/03 08:42:51;;;;;;;3.40;1.50;;;;;;;0.26;70.04;98156.89;210602;1333;25098;-70
2021/12/03 08:48:00;;;;;;;6.70;1.80;;;;;;;0.08;70.13;98152.00;209109;1333;24276;-71
2021/12/03 08:58:23;;;;;;;6.70;2.30;;;;;;;0.14;70.90;98153.36;210522;1333;22611;-70
2021/12/03 09:03:39;;;;;;;6.80;2.70;;;;;;;0.26;70.51;98152.16;210835;1332;22726;-71
2021/12/03 09:08:41;;;;;;;6.40;2.60;;;;;;;0.38;70.54;98161.74;208883;1335;24476;-70
2021/12/03 09:13:46;;;;;;;5.60;2.30;;;;;;;0.47;70.20;98165.92;209195;1339;24506;-69
2021/12/03 09:18:51;;;;;;;3.00;1.60;;;;;;;0.56;69.74;98161.89;209110;1336;25475;-70
2021/12/03 09:29:08;;;;;;;4.60;1.40;;;;;;;0.75;68.92;98160.21;209131;1339;22597;-70
2021/12/03 09:34:14;;;;;;;3.10;1.80;;;;;;;0.86;68.65;98159.27;208897;1333;24480;-69
2021/12/03 09:39:23;;;;;;;6.10;1.70;;;;;;;0.95;68.36;98159.69;209227;1336;24386;-69
2021/12/03 09:44:30;;;;;;;6.60;1.30;;;;;;;1.09;67.94;98155.66;209225;1340;24470;-70
2021/12/03 09:49:35;;;;;;;8.20;1.50;;;;;;;1.14;66.80;98152.04;209022;1335;22688;-70
2021/12/03 09:54:44;;;;;;;4.90;1.40;;;;;;;1.23;66.89;98147.11;208878;1336;24328;-70
2021/12/03 10:32:49;;;;;;;14.80;9.00;;;;;;;1.68;59.90;98141.62;210451;1335;22735;-71
2021/12/03 10:48:28;;;;;;;5.00;1.20;;;;;;;1.85;58.42;98133.89;208980;1335;24819;-69
2021/12/03 10:53:47;;;;;;;2.50;1.50;;;;;;;1.85;57.56;98130.36;208925;1336;24318;-68
2021/12/03 11:26:15;;;;;;;4.20;1.20;;;;;;;2.09;55.16;98112.70;208768;1335;24159;-70
2021/12/03 13:00:50;;;;;;;9.30;3.40;;;;;;;2.38;54.75;98148.77;209135;1336;25367;-70
2021/12/03 13:29:14;;;;;;;8.80;2.30;;;;;;;2.24;56.01;98177.06;209513;1341;22709;-69
2021/12/03 14:02:03;;;;;;;8.70;4.70;;;;;;;1.73;56.87;98187.63;208907;1335;22593;-69
2021/12/03 14:44:18;;;;;;;12.80;5.50;;;;;;;0.51;58.77;98213.90;208953;1338;24496;-68
2021/12/03 15:00:17;;;;;;;20.20;6.40;;;;;;;0.08;60.35;98219.67;208406;1335;22755;-69
2021/12/03 15:05:40;;;;;;;12.70;5.20;;;;;;;-0.08;60.74;98223.75;208966;1336;22803;-69
2021/12/03 16:10:33;;;;;;;19.50;8.50;;;;;;;-1.12;62.66;98271.10;209003;1340;23030;-69
2021/12/03 16:53:23;;;;;;;38.10;13.70;;;;;;;-1.76;64.28;98300.58;209451;1337;22676;-70
2021/12/03 16:58:46;;;;;;;35.20;14.40;;;;;;;-1.84;64.79;98292.16;209236;1341;25669;-69
2021/12/03 17:30:54;;;;;;;21.90;10.40;;;;;;;-1.61;66.36;98312.33;210730;1333;22679;-69
2021/12/03 18:51:07;;;;;;;17.50;8.80;;;;;;;-2.06;68.68;98280.52;210491;1333;25288;-71
2021/12/03 19:01:46;;;;;;;19.80;8.90;;;;;;;-2.03;68.75;98267.83;210034;1340;22667;-68
2021/12/03 19:06:59;;;;;;;17.90;7.90;;;;;;;-2.01;68.73;98261.52;209405;1339;22589;-70
2021/12/03 19:17:08;;;;;;;16.10;8.30;;;;;;;-1.97;68.53;98253.03;209181;1333;22698;-69
2021/12/03 19:22:14;;;;;;;16.90;7.80;;;;;;;-1.96;68.53;98253.34;209478;1333;22591;-71
2021/12/03 19:27:25;;;;;;;22.00;9.00;;;;;;;-1.94;68.60;98259.34;209238;1333;24346;-69
2021/12/03 19:32:30;;;;;;;22.10;10.30;;;;;;;-1.88;68.33;98258.94;210442;1335;22891;-71
2021/12/03 19:37:33;;;;;;;22.50;9.80;;;;;;;-1.88;68.16;98253.86;210294;1339;22629;-70
2021/12/03 19:42:48;;;;;;;20.50;10.10;;;;;;;-1.89;68.02;98253.74;209976;1337;25405;-71
2021/12/03 19:53:16;;;;;;;23.10;10.70;;;;;;;-1.81;67.69;98254.59;210612;1341;22587;-71
2021/12/03 19:58:20;;;;;;;21.40;8.70;;;;;;;-1.73;67.16;98250.80;208987;1341;22777;-70
2021/12/03 20:03:22;;;;;;;17.70;8.40;;;;;;;-1.65;66.89;98249.45;209267;1335;22631;-71
2021/12/03 20:08:25;;;;;;;21.00;9.30;;;;;;;-1.56;66.68;98244.70;210296;1338;22850;-70
2021/12/03 20:13:29;;;;;;;15.10;7.70;;;;;;;-1.47;66.31;98239.93;210268;1336;23402;-71
2021/12/03 20:18:43;;;;;;;13.90;6.60;;;;;;;-1.35;66.34;98236.98;210203;1339;22621;-71
2021/12/03 20:39:42;;;;;;;15.60;6.40;;;;;;;-1.03;65.87;98231.98;209924;1336;22599;-71
2021/12/03 20:45:00;;;;;;;13.20;6.20;;;;;;;-0.96;65.62;98232.07;210238;1336;22622;-71
2021/12/03 21:12:26;;;;;;;10.90;5.00;;;;;;;-0.72;64.61;98207.21;209277;1334;149214;-71
2021/12/03 21:18:03;;;;;;;19.10;8.70;;;;;;;-0.68;64.27;98203.78;210689;1339;22897;-71
2021/12/03 21:23:11;;;;;;;12.10;5.90;;;;;;;-0.67;64.23;98185.16;210245;1341;24308;-71
2021/12/03 21:28:30;;;;;;;14.90;6.30;;;;;;;-0.70;64.16;98184.55;210239;1337;25393;-71
2021/12/03 21:43:52;;;;;;;9.30;5.50;;;;;;;-0.81;64.54;98179.80;210319;1342;25362;-71
2021/12/03 21:48:55;;;;;;;13.60;5.80;;;;;;;-0.85;64.71;98172.50;210318;1339;23217;-71
2021/12/03 21:53:57;;;;;;;10.70;5.60;;;;;;;-0.88;64.89;98177.13;210400;1340;23426;-71
2021/12/03 21:59:03;;;;;;;10.70;5.10;;;;;;;-0.91;64.90;98175.27;209309;1340;22606;-70
2021/12/03 22:04:05;;;;;;;11.50;4.80;;;;;;;-0.95;64.88;98175.98;210352;1336;24275;-71
2021/12/03 22:09:25;;;;;;;10.90;4.80;;;;;;;-1.00;64.95;98170.66;210401;1336;25369;-70
2021/12/03 22:14:41;;;;;;;7.10;4.20;;;;;;;-1.08;65.17;98169.84;210152;1337;22677;-71
2021/12/03 22:20:10;;;;;;;9.40;4.80;;;;;;;-1.12;65.14;98164.75;210182;1342;25431;-71
2021/12/03 22:25:13;;;;;;;11.80;4.70;;;;;;;-1.13;65.05;98161.40;210486;1340;22638;-71
2021/12/03 22:30:41;;;;;;;10.10;4.90;;;;;;;-1.12;64.98;98154.44;210362;1342;25482;-70
2021/12/03 22:35:57;;;;;;;10.60;5.30;;;;;;;-1.12;64.97;98147.88;210202;1340;22724;-71
2021/12/03 22:41:20;;;;;;;9.40;4.20;;;;;;;-1.15;65.10;98142.14;210341;1340;26453;-71
2021/12/03 22:46:42;;;;;;;9.90;5.00;;;;;;;-1.16;65.07;98141.34;210415;1339;26935;-71
2021/12/03 22:56:51;;;;;;;10.00;4.60;;;;;;;-1.19;65.06;98116.73;209164;1341;25699;-71
2021/12/03 23:02:06;;;;;;;9.40;4.40;;;;;;;-1.22;65.30;98118.64;209911;1338;25640;-71
2021/12/03 23:07:23;;;;;;;12.40;5.50;;;;;;;-1.26;65.43;98112.02;210279;1339;22598;-71
2021/12/03 23:12:34;;;;;;;10.10;5.20;;;;;;;-1.32;65.62;98107.85;210382;1337;22591;-70
2021/12/03 23:17:37;;;;;;;10.10;5.10;;;;;;;-1.35;65.70;98099.45;209536;1339;22601;-71
2021/12/03 23:22:52;;;;;;;14.60;5.80;;;;;;;-1.39;65.82;98097.05;209442;1340;22852;-71
2021/12/03 23:27:55;;;;;;;7.90;4.50;;;;;;;-1.47;65.92;98094.29;209366;1340;22623;-70
2021/12/03 23:32:58;;;;;;;10.00;4.40;;;;;;;-1.50;66.16;98089.27;209370;1341;25864;-69
2021/12/03 23:38:01;;;;;;;7.70;4.80;;;;;;;-1.53;66.22;98089.27;210602;1338;25599;-70
2021/12/03 23:43:03;;;;;;;8.30;4.20;;;;;;;-1.57;66.36;98082.33;209151;1341;25728;-70
2021/12/03 23:48:07;;;;;;;14.60;5.10;;;;;;;-1.62;66.40;98089.15;209104;1339;26022;-70
2021/12/03 23:53:11;;;;;;;8.30;3.90;;;;;;;-1.62;66.53;98088.06;209414;1339;22721;-71
2021/12/03 23:58:14;;;;;;;10.60;5.50;;;;;;;-1.62;66.78;98087.90;209701;1340;25390;-70
